createdAt,value
2023-04-21T00:00:26.499Z,52.10
2023-04-21T00:02:54.690Z,51.90
2023-04-21T00:05:23.055Z,51.83
2023-04-21T00:07:51.326Z,52.04
2023-04-21T00:10:19.585Z,52.00
2023-04-21T00:12:48.963Z,52.10
2023-04-21T00:15:17.020Z,52.03
2023-04-21T00:17:45.674Z,52.05
2023-04-21T00:20:14.518Z,52.04
2023-04-21T00:22:42.530Z,52.20
2023-04-21T00:25:11.068Z,52.23
2023-04-21T00:27:39.096Z,52.01
2023-04-21T00:30:10.554Z,51.56
2023-04-21T00:32:38.697Z,51.72
2023-04-21T00:35:07.312Z,51.75
2023-04-21T00:37:35.461Z,51.69
2023-04-21T00:40:05.873Z,51.82
2023-04-21T00:42:33.992Z,51.72
2023-04-21T00:45:03.177Z,51.81
2023-04-21T00:47:33.489Z,51.90
2023-04-21T00:50:01.733Z,52.14
2023-04-21T00:52:30.798Z,52.11
2023-04-21T00:54:59.191Z,52.26
2023-04-21T00:57:28.732Z,52.17
2023-04-21T00:59:56.742Z,52.04
2023-04-21T01:02:26.261Z,52.14
2023-04-21T01:04:55.906Z,52.04
2023-04-21T01:07:26.170Z,52.17
2023-04-21T01:09:54.182Z,52.19
2023-04-21T01:12:22.214Z,52.47
2023-04-21T01:14:50.651Z,52.17
2023-04-21T01:17:19.021Z,52.04
2023-04-21T01:19:49.066Z,51.75
2023-04-21T01:22:18.717Z,51.75
2023-04-21T01:24:49.505Z,51.61
2023-04-21T01:27:19.298Z,51.77
2023-04-21T01:29:49.895Z,51.87
2023-04-21T01:32:19.514Z,51.87
2023-04-21T01:34:47.851Z,51.93
2023-04-21T01:37:19.057Z,52.00
2023-04-21T01:39:52.150Z,52.21
2023-04-21T01:42:20.951Z,52.15
2023-04-21T01:44:49.620Z,52.18
2023-04-21T01:47:19.137Z,52.33
2023-04-21T01:49:47.250Z,52.15
2023-04-21T01:52:15.283Z,52.10
2023-04-21T01:54:44.772Z,51.96
2023-04-21T01:57:13.107Z,52.48
2023-04-21T01:59:41.491Z,52.78
2023-04-21T02:02:10.033Z,52.33
2023-04-21T02:04:38.251Z,52.49
2023-04-21T02:07:07.328Z,52.84
2023-04-21T02:09:35.794Z,52.86
2023-04-21T02:12:05.667Z,52.42
2023-04-21T02:14:33.838Z,52.60
2023-04-21T02:17:03.663Z,52.53
2023-04-21T02:19:32.137Z,52.62
2023-04-21T02:22:00.247Z,52.82
2023-04-21T02:24:28.335Z,52.69
2023-04-21T02:26:57.672Z,53.02
2023-04-21T02:29:27.142Z,52.89
2023-04-21T02:32:03.064Z,52.73
2023-04-21T02:34:33.736Z,53.01
2023-04-21T02:37:02.508Z,53.13
2023-04-21T02:39:30.765Z,53.07
2023-04-21T02:41:59.014Z,52.75
2023-04-21T02:44:30.156Z,52.53
2023-04-21T02:46:58.176Z,52.65
2023-04-21T02:49:26.313Z,52.94
2023-04-21T02:51:55.074Z,52.82
2023-04-21T02:54:23.128Z,52.93
2023-04-21T02:56:51.399Z,52.85
2023-04-21T02:59:19.885Z,53.24
2023-04-21T03:01:49.812Z,53.11
2023-04-21T03:04:18.068Z,52.78
2023-04-21T03:06:46.184Z,52.86
2023-04-21T03:09:14.313Z,52.72
2023-04-21T03:11:42.333Z,52.67
2023-04-21T03:14:10.388Z,52.90
2023-04-21T03:16:38.764Z,52.75
2023-04-21T03:19:08.370Z,52.69
2023-04-21T03:21:38.418Z,52.66
2023-04-21T03:24:07.550Z,52.66
2023-04-21T03:26:35.848Z,52.61
2023-04-21T03:29:03.853Z,52.66
2023-04-21T03:31:31.947Z,52.53
2023-04-21T03:34:00.135Z,52.36
2023-04-21T03:36:29.965Z,52.36
2023-04-21T03:39:03.337Z,52.14
2023-04-21T03:41:37.634Z,52.26
2023-04-21T03:44:05.946Z,52.46
2023-04-21T03:46:34.346Z,52.59
2023-04-21T03:49:17.886Z,52.85
2023-04-21T03:51:47.489Z,53.00
2023-04-21T03:54:15.596Z,53.03
2023-04-21T03:56:43.670Z,52.99
2023-04-21T03:59:11.785Z,53.06
2023-04-21T04:01:39.804Z,53.35
2023-04-21T04:04:08.115Z,53.43
2023-04-21T04:06:36.918Z,53.35
2023-04-21T04:09:06.326Z,53.41
2023-04-21T04:11:34.544Z,53.47
2023-04-21T04:14:02.627Z,53.58
2023-04-21T04:16:31.101Z,53.55
2023-04-21T04:18:59.256Z,53.84
2023-04-21T04:21:27.592Z,54.06
2023-04-21T04:23:55.902Z,54.04
2023-04-21T04:26:25.720Z,53.97
2023-04-21T04:28:56.248Z,53.88
2023-04-21T04:31:25.374Z,54.09
2023-04-21T04:33:55.481Z,54.04
2023-04-21T04:36:24.164Z,53.93
2023-04-21T04:38:52.308Z,54.23
2023-04-21T04:41:20.969Z,54.15
2023-04-21T04:43:51.185Z,54.10
2023-04-21T04:46:20.619Z,54.10
2023-04-21T04:48:49.264Z,54.30
2023-04-21T04:51:17.406Z,54.17
2023-04-21T04:53:45.564Z,54.03
2023-04-21T04:56:13.606Z,54.19
2023-04-21T04:58:41.642Z,54.13
2023-04-21T05:01:14.928Z,54.24
2023-04-21T05:03:43.555Z,54.31
2023-04-21T05:06:12.167Z,54.27
2023-04-21T05:08:41.354Z,54.26
2023-04-21T05:11:09.523Z,54.19
2023-04-21T05:13:39.753Z,54.26
2023-04-21T05:16:10.200Z,54.06
2023-04-21T05:18:39.823Z,54.06
2023-04-21T05:21:08.387Z,53.86
2023-04-21T05:23:36.390Z,53.87
2023-04-21T05:26:05.085Z,53.77
2023-04-21T05:28:33.330Z,53.82
2023-04-21T05:31:01.471Z,53.72
2023-04-21T05:33:31.896Z,53.70
2023-04-21T05:36:01.451Z,53.43
2023-04-21T05:38:29.519Z,53.39
2023-04-21T05:40:57.651Z,53.49
2023-04-21T05:43:25.661Z,53.30
2023-04-21T05:45:53.974Z,53.19
2023-04-21T05:48:22.069Z,53.08
2023-04-21T05:50:50.148Z,52.97
2023-04-21T05:53:19.651Z,52.98
2023-04-21T05:55:47.829Z,52.94
2023-04-21T05:58:15.940Z,52.56
2023-04-21T06:00:43.994Z,52.52
2023-04-21T06:03:12.150Z,52.13
2023-04-21T06:05:40.248Z,51.82
2023-04-21T06:08:08.321Z,51.64
2023-04-21T06:10:37.767Z,51.51
2023-04-21T06:13:05.844Z,51.58
2023-04-21T06:15:33.883Z,51.27
2023-04-21T06:18:01.929Z,51.22
2023-04-21T06:20:30.058Z,50.90
2023-04-21T06:22:58.131Z,50.72
2023-04-21T06:25:26.244Z,50.59
2023-04-21T06:27:56.367Z,50.46
2023-04-21T06:30:24.611Z,50.31
2023-04-21T06:32:52.721Z,50.09
2023-04-21T06:35:20.918Z,49.90
2023-04-21T06:37:48.924Z,49.65
2023-04-21T06:40:17.020Z,49.65
2023-04-21T06:42:45.113Z,49.63
2023-04-21T06:45:14.517Z,49.56
2023-04-21T06:47:42.600Z,49.02
2023-04-21T06:50:11.645Z,48.85
2023-04-21T06:52:39.708Z,48.49
2023-04-21T06:55:08.728Z,48.48
2023-04-21T06:57:36.818Z,48.26
2023-04-21T07:00:06.828Z,47.98
2023-04-21T07:02:36.390Z,48.18
2023-04-21T07:05:04.891Z,47.57
2023-04-21T07:07:32.938Z,47.38
2023-04-21T07:10:01.209Z,47.38
2023-04-21T07:12:29.393Z,47.15
2023-04-21T07:14:57.401Z,46.99
2023-04-21T07:17:25.569Z,46.62
2023-04-21T07:19:55.043Z,46.26
2023-04-21T07:22:23.137Z,45.51
2023-04-21T07:24:51.533Z,44.34
2023-04-21T07:27:20.236Z,43.44
2023-04-21T07:29:48.240Z,42.93
2023-04-21T07:32:16.299Z,42.37
2023-04-21T07:34:46.923Z,42.39
2023-04-21T07:37:16.457Z,41.45
2023-04-21T07:39:44.460Z,41.38
2023-04-21T07:42:12.528Z,40.97
2023-04-21T07:44:40.917Z,40.65
2023-04-21T07:47:09.206Z,40.59
2023-04-21T07:49:37.484Z,40.25
2023-04-21T07:52:05.755Z,39.76
2023-04-21T07:54:35.506Z,39.54
2023-04-21T07:57:03.877Z,39.07
2023-04-21T07:59:32.190Z,38.37
2023-04-21T08:02:00.522Z,38.94
2023-04-21T08:04:29.412Z,37.79
2023-04-21T08:06:58.089Z,37.27
2023-04-21T08:09:27.309Z,36.75
2023-04-21T08:11:58.117Z,37.15
2023-04-21T08:14:27.099Z,37.25
2023-04-21T08:16:57.201Z,37.40
2023-04-21T08:19:25.938Z,37.08
2023-04-21T08:21:54.288Z,36.54
2023-04-21T08:24:22.928Z,36.29
2023-04-21T08:26:51.438Z,35.86
2023-04-21T08:29:21.315Z,35.56
2023-04-21T08:31:49.697Z,35.72
2023-04-21T08:36:48.774Z,35.93
2023-04-21T08:39:17.700Z,35.89
2023-04-21T08:41:46.403Z,35.24
2023-04-21T08:44:15.839Z,35.35
2023-04-21T08:46:46.232Z,35.18
2023-04-21T08:49:19.729Z,34.54
2023-04-21T08:51:49.056Z,35.44
2023-04-21T08:54:17.364Z,34.55
2023-04-21T08:56:45.672Z,33.46
2023-04-21T08:59:13.997Z,34.05
2023-04-21T09:02:12.514Z,32.80
2023-04-21T09:04:42.064Z,33.22
2023-04-21T09:07:11.012Z,32.75
2023-04-21T09:09:55.615Z,33.71
2023-04-21T09:12:24.164Z,33.41
2023-04-21T09:14:52.561Z,31.88
2023-04-21T09:17:24.266Z,31.31
2023-04-21T09:19:52.618Z,31.12
2023-04-21T09:22:20.901Z,31.89
2023-04-21T09:24:49.925Z,31.29
2023-04-21T09:27:18.582Z,30.09
2023-04-21T09:29:50.067Z,29.22
2023-04-21T09:32:19.733Z,29.46
2023-04-21T09:34:49.575Z,29.79
2023-04-21T09:37:19.173Z,29.48
2023-04-21T09:40:03.265Z,29.13
2023-04-21T09:42:37.855Z,28.81
2023-04-21T09:45:32.394Z,28.97
2023-04-21T09:48:00.798Z,29.28
2023-04-21T09:53:04.945Z,28.18
2023-04-21T09:55:35.127Z,26.87
2023-04-21T09:58:05.500Z,26.24
2023-04-21T10:00:39.397Z,26.52
2023-04-21T10:03:11.584Z,26.29
2023-04-21T10:05:43.109Z,27.04
2023-04-21T10:08:12.716Z,25.39
2023-04-21T10:10:41.567Z,25.07
2023-04-21T10:13:16.003Z,24.83
2023-04-21T10:15:44.464Z,25.61
2023-04-21T10:18:14.521Z,25.72
2023-04-21T10:20:58.197Z,25.20
2023-04-21T10:23:34.633Z,24.52
2023-04-21T10:26:04.795Z,24.00
2023-04-21T10:28:44.199Z,24.43
2023-04-21T10:31:34.651Z,23.32
2023-04-21T10:34:35.502Z,23.51
2023-04-21T10:37:19.793Z,22.85
2023-04-21T10:39:54.771Z,22.91
2023-04-21T10:42:34.811Z,22.50
2023-04-21T10:45:13.932Z,23.08
2023-04-21T10:47:45.308Z,22.85
2023-04-21T10:50:16.997Z,22.01
2023-04-21T10:52:48.830Z,22.15
2023-04-21T10:55:17.206Z,22.41
2023-04-21T10:57:46.730Z,21.93
2023-04-21T11:00:20.496Z,22.03
2023-04-21T11:02:56.806Z,22.02
2023-04-21T11:05:36.432Z,21.38
2023-04-21T11:08:16.760Z,21.70
2023-04-21T11:10:56.089Z,21.65
2023-04-21T11:13:26.447Z,21.28
2023-04-21T11:15:59.288Z,20.41
2023-04-21T11:18:49.067Z,20.60
2023-04-21T11:21:20.230Z,20.50
2023-04-21T11:23:54.901Z,20.12
2023-04-21T11:26:34.361Z,19.67
2023-04-21T11:29:10.881Z,19.51
2023-04-21T11:31:41.425Z,19.76
2023-04-21T11:34:09.953Z,19.85
2023-04-21T11:36:39.831Z,19.40
2023-04-21T11:39:11.493Z,18.79
2023-04-21T11:41:42.430Z,19.22
2023-04-21T11:44:11.582Z,20.10
2023-04-21T11:46:46.553Z,19.26
2023-04-21T11:49:17.158Z,18.64
2023-04-21T11:51:46.929Z,18.63
2023-04-21T11:54:22.029Z,18.39
2023-04-21T11:56:50.376Z,18.80
2023-04-21T11:59:25.007Z,18.38
2023-04-21T12:01:55.590Z,17.45
2023-04-21T12:04:25.321Z,17.83
2023-04-21T12:06:59.346Z,17.60
2023-04-21T12:09:29.741Z,17.34
2023-04-21T12:11:59.955Z,17.54
2023-04-21T12:14:28.343Z,17.48
2023-04-21T12:16:58.664Z,17.62
2023-04-21T12:19:36.892Z,18.06
2023-04-21T12:22:09.600Z,17.83
2023-04-21T12:24:39.698Z,17.30
2023-04-21T12:27:09.163Z,16.88
2023-04-21T12:29:38.596Z,17.18
2023-04-21T12:32:07.612Z,16.38
2023-04-21T12:34:36.350Z,17.10
2023-04-21T12:37:06.346Z,16.80
2023-04-21T12:39:35.668Z,17.83
2023-04-21T12:42:06.257Z,17.95
2023-04-21T12:44:34.578Z,18.28
2023-04-21T12:47:02.986Z,17.47
2023-04-21T12:49:31.671Z,17.15
2023-04-21T12:52:00.739Z,17.69
2023-04-21T12:54:29.140Z,18.15
2023-04-21T12:56:58.118Z,17.97
2023-04-21T12:59:28.014Z,17.61
2023-04-21T13:01:56.683Z,16.67
2023-04-21T13:04:25.164Z,16.42
2023-04-21T13:06:53.709Z,16.83
2023-04-21T13:09:21.988Z,17.90
2023-04-21T13:11:51.768Z,17.56
2023-04-21T13:14:20.099Z,16.34
2023-04-21T13:16:49.968Z,16.49
2023-04-21T13:19:18.572Z,16.78
2023-04-21T13:21:46.885Z,16.45
2023-04-21T13:24:15.214Z,15.85
2023-04-21T13:26:43.658Z,16.16
2023-04-21T13:29:12.122Z,15.20
2023-04-21T13:31:40.696Z,15.71
2023-04-21T13:34:11.021Z,15.54
2023-04-21T13:36:39.390Z,15.04
2023-04-21T13:39:11.097Z,15.47
2023-04-21T13:41:39.472Z,15.72
2023-04-21T13:44:07.863Z,13.89
2023-04-21T13:46:36.439Z,13.81
2023-04-21T13:49:04.715Z,14.14
2023-04-21T13:51:34.450Z,13.62
2023-04-21T13:54:02.776Z,14.19
2023-04-21T13:56:31.288Z,14.63
2023-04-21T13:59:00.643Z,14.39
2023-04-21T14:01:29.108Z,14.16
2023-04-21T14:03:57.631Z,14.06
2023-04-21T14:06:26.633Z,14.03
2023-04-21T14:08:56.332Z,14.29
2023-04-21T14:11:24.657Z,14.05
2023-04-21T14:16:28.227Z,14.01
2023-04-21T14:18:56.574Z,13.50
2023-04-21T14:21:25.017Z,13.46
2023-04-21T14:23:53.374Z,14.14
2023-04-21T14:26:23.449Z,14.06
2023-04-21T14:28:51.965Z,14.03
2023-04-21T14:31:22.116Z,14.42
2023-04-21T14:33:50.707Z,14.85
2023-04-21T14:36:19.160Z,13.29
2023-04-21T14:38:47.719Z,14.27
2023-04-21T14:41:15.995Z,13.93
2023-04-21T14:43:47.619Z,14.84
2023-04-21T14:46:17.398Z,14.48
2023-04-21T14:48:45.883Z,14.80
2023-04-21T14:51:14.265Z,14.79
2023-04-21T14:53:42.578Z,15.07
2023-04-21T14:56:11.043Z,13.78
2023-04-21T14:58:39.402Z,14.52
2023-04-21T15:01:10.673Z,14.37
2023-04-21T15:03:39.152Z,14.24
2023-04-21T15:06:07.957Z,14.68
2023-04-21T15:08:36.368Z,14.81
2023-04-21T15:11:05.388Z,14.71
2023-04-21T15:13:34.153Z,14.95
2023-04-21T15:16:02.429Z,15.06
2023-04-21T15:18:32.225Z,14.54
2023-04-21T15:21:00.589Z,14.75
2023-04-21T15:23:29.459Z,15.10
2023-04-21T15:25:58.128Z,15.16
2023-04-21T15:28:26.799Z,15.67
2023-04-21T15:30:55.302Z,15.26
2023-04-21T15:33:23.706Z,14.84
2023-04-21T15:35:53.542Z,15.29
2023-04-21T15:38:22.062Z,15.78
2023-04-21T15:41:00.568Z,15.79
2023-04-21T15:43:29.746Z,15.60
2023-04-21T15:45:58.028Z,16.21
2023-04-21T15:48:26.596Z,16.43
2023-04-21T15:50:59.604Z,16.83
2023-04-21T15:53:28.209Z,16.40
2023-04-21T15:55:56.456Z,16.92
2023-04-21T15:58:24.751Z,16.80
2023-04-21T16:00:53.141Z,16.43
2023-04-21T16:03:22.567Z,16.71
2023-04-21T16:05:51.397Z,16.31
2023-04-21T16:08:21.625Z,16.62
2023-04-21T16:10:49.984Z,16.74
2023-04-21T16:13:18.879Z,16.54
2023-04-21T16:15:47.375Z,16.80
2023-04-21T16:18:15.867Z,17.16
2023-04-21T16:20:46.094Z,17.18
2023-04-21T16:23:15.055Z,17.60
2023-04-21T16:25:45.104Z,18.06
2023-04-21T16:28:13.581Z,18.41
2023-04-21T16:30:43.610Z,18.33
2023-04-21T16:33:13.320Z,18.57
2023-04-21T16:35:41.918Z,18.41
2023-04-21T16:38:10.709Z,18.44
2023-04-21T16:40:38.997Z,18.83
2023-04-21T16:43:08.686Z,18.67
2023-04-21T16:45:37.115Z,18.75
2023-04-21T16:48:05.884Z,18.51
2023-04-21T16:50:34.468Z,18.80
2023-04-21T16:53:02.836Z,18.70
2023-04-21T16:55:31.529Z,18.96
2023-04-21T16:58:00.777Z,18.77
2023-04-21T17:00:31.281Z,19.15
2023-04-21T17:02:59.789Z,19.19
2023-04-21T17:05:28.283Z,19.65
2023-04-21T17:07:56.588Z,19.62
2023-04-21T17:10:27.083Z,19.86
2023-04-21T17:12:55.435Z,19.88
2023-04-21T17:15:23.739Z,19.81
2023-04-21T17:17:53.487Z,20.18
2023-04-21T17:20:22.098Z,20.23
2023-04-21T17:22:50.495Z,20.16
2023-04-21T17:25:18.761Z,20.36
2023-04-21T17:27:47.172Z,20.69
2023-04-21T17:30:15.816Z,21.05
2023-04-21T17:32:44.540Z,20.95
2023-04-21T17:35:14.448Z,21.03
2023-04-21T17:37:42.732Z,21.25
2023-04-21T17:40:12.399Z,21.37
2023-04-21T17:42:41.817Z,21.70
2023-04-21T17:45:10.754Z,21.71
2023-04-21T17:47:39.322Z,21.68
2023-04-21T17:50:09.972Z,21.64
2023-04-21T17:52:39.901Z,21.98
2023-04-21T17:55:08.920Z,22.20
2023-04-21T17:57:37.252Z,22.19
2023-04-21T18:00:08.609Z,22.49
2023-04-21T18:02:37.113Z,22.74
2023-04-21T18:05:06.710Z,23.05
2023-04-21T18:07:35.120Z,23.11
2023-04-21T18:10:05.344Z,23.37
2023-04-21T18:12:33.636Z,23.79
2023-04-21T18:15:02.281Z,23.85
2023-04-21T18:17:30.721Z,23.98
2023-04-21T18:19:58.997Z,24.11
2023-04-21T18:22:27.284Z,24.37
2023-04-21T18:24:55.615Z,24.42
2023-04-21T18:27:26.816Z,24.67
2023-04-21T18:29:55.157Z,24.81
2023-04-21T18:32:23.381Z,24.98
2023-04-21T18:34:51.728Z,25.17
2023-04-21T18:37:20.046Z,25.46
2023-04-21T18:39:48.303Z,25.46
2023-04-21T18:42:16.560Z,25.85
2023-04-21T18:44:46.237Z,26.11
2023-04-21T18:47:15.566Z,26.39
2023-04-21T18:49:45.243Z,26.44
2023-04-21T18:52:15.237Z,26.69
2023-04-21T18:54:43.583Z,26.81
2023-04-21T18:57:12.007Z,26.88
2023-04-21T18:59:40.282Z,27.13
2023-04-21T19:02:13.599Z,27.15
2023-04-21T19:04:43.861Z,27.52
2023-04-21T19:07:12.716Z,27.64
2023-04-21T19:09:40.957Z,27.86
2023-04-21T19:12:09.354Z,28.19
2023-04-21T19:14:46.484Z,28.29
2023-04-21T19:17:17.268Z,28.26
2023-04-21T19:19:45.568Z,28.30
2023-04-21T19:22:13.910Z,28.30
2023-04-21T19:24:42.232Z,28.32
2023-04-21T19:27:10.766Z,28.59
2023-04-21T19:29:39.102Z,28.69
2023-04-21T19:32:08.279Z,28.64
2023-04-21T19:34:38.236Z,28.81
2023-04-21T19:37:06.962Z,28.90
2023-04-21T19:39:35.301Z,28.93
2023-04-21T19:42:03.697Z,29.01
2023-04-21T19:44:31.973Z,29.00
2023-04-21T19:47:00.957Z,29.18
2023-04-21T19:49:29.388Z,29.27
2023-04-21T19:51:59.043Z,29.26
2023-04-21T19:54:27.470Z,29.38
2023-04-21T19:56:56.499Z,29.51
2023-04-21T19:59:24.796Z,29.61
2023-04-21T20:01:53.060Z,29.79
2023-04-21T20:04:21.509Z,29.74
2023-04-21T20:06:50.152Z,29.71
2023-04-21T20:09:19.952Z,29.74
2023-04-21T20:11:48.326Z,29.97
2023-04-21T20:14:17.121Z,30.20
2023-04-21T20:16:46.437Z,30.29
2023-04-21T20:19:17.344Z,30.71
2023-04-21T20:21:45.774Z,30.86
2023-04-21T20:24:14.040Z,31.20
2023-04-21T20:26:43.735Z,31.32
2023-04-21T20:29:11.977Z,31.84
2023-04-21T20:31:40.347Z,32.26
2023-04-21T20:34:08.829Z,32.50
2023-04-21T20:36:37.988Z,32.83
2023-04-21T20:39:06.973Z,33.28
2023-04-21T20:41:35.196Z,33.66
2023-04-21T20:44:06.203Z,33.92
2023-04-21T20:46:34.587Z,34.21
2023-04-21T20:49:02.773Z,34.37
2023-04-21T20:51:32.523Z,34.54
2023-04-21T20:54:01.053Z,34.73
2023-04-21T20:56:29.389Z,35.26
2023-04-21T20:58:57.692Z,35.13
2023-04-21T21:01:30.039Z,35.45
2023-04-21T21:04:01.370Z,35.47
2023-04-21T21:06:30.096Z,35.63
2023-04-21T21:08:58.442Z,35.65
2023-04-21T21:11:26.754Z,35.62
2023-04-21T21:13:55.062Z,35.62
2023-04-21T21:16:23.930Z,35.60
2023-04-21T21:18:53.761Z,35.34
2023-04-21T21:21:22.092Z,35.40
2023-04-21T21:23:50.490Z,35.28
2023-04-21T21:26:18.887Z,35.30
2023-04-21T21:28:47.243Z,35.18
2023-04-21T21:31:15.559Z,35.04
2023-04-21T21:33:43.929Z,35.06
2023-04-21T21:36:13.689Z,35.02
2023-04-21T21:38:42.061Z,35.02
2023-04-21T21:41:12.265Z,35.08
2023-04-21T21:43:40.582Z,35.10
2023-04-21T21:46:09.564Z,35.13
2023-04-21T21:48:37.831Z,35.03
2023-04-21T21:51:06.313Z,35.11
2023-04-21T21:53:35.938Z,35.05
2023-04-21T21:56:04.211Z,35.20
2023-04-21T21:58:32.743Z,35.39
2023-04-21T22:01:01.063Z,35.35
2023-04-21T22:03:29.625Z,35.39
2023-04-21T22:05:58.152Z,35.56
2023-04-21T22:08:26.874Z,35.63
2023-04-21T22:11:01.378Z,35.83
2023-04-21T22:13:29.702Z,35.99
2023-04-21T22:15:58.021Z,35.88
2023-04-21T22:18:27.135Z,35.96
2023-04-21T22:20:55.512Z,36.08
2023-04-21T22:23:23.797Z,36.01
2023-04-21T22:25:52.490Z,35.97
2023-04-21T22:28:22.149Z,35.81
2023-04-21T22:30:50.501Z,36.04
2023-04-21T22:33:18.823Z,36.08
2023-04-21T22:35:47.080Z,35.87
2023-04-21T22:38:15.405Z,35.78
2023-04-21T22:40:43.760Z,35.55
2023-04-21T22:43:12.197Z,35.50
2023-04-21T22:45:43.020Z,35.44
2023-04-21T22:48:11.426Z,35.35
2023-04-21T22:50:39.738Z,35.40
2023-04-21T22:53:08.064Z,35.28
2023-04-21T22:55:36.668Z,35.07
2023-04-21T22:58:04.897Z,34.88
2023-04-21T23:00:33.323Z,35.05
2023-04-21T23:03:03.091Z,34.90
2023-04-21T23:05:31.543Z,34.90
2023-04-21T23:07:59.825Z,34.94
2023-04-21T23:10:29.217Z,34.95
2023-04-21T23:12:57.731Z,34.91
2023-04-21T23:15:26.908Z,34.57
2023-04-21T23:17:55.293Z,34.58
2023-04-21T23:20:25.084Z,34.58
2023-04-21T23:22:53.400Z,34.51
2023-04-21T23:25:21.935Z,34.25
2023-04-21T23:27:50.303Z,34.36
2023-04-21T23:30:18.708Z,34.34
2023-04-21T23:32:47.113Z,34.49
2023-04-21T23:35:15.512Z,34.73
2023-04-21T23:37:46.536Z,34.95
2023-04-21T23:40:15.192Z,35.00
2023-04-21T23:42:47.166Z,35.25
2023-04-21T23:45:16.164Z,35.78
2023-04-21T23:47:45.751Z,36.08
2023-04-21T23:50:14.223Z,36.29
2023-04-21T23:52:44.214Z,36.92
2023-04-21T23:55:16.343Z,37.20
2023-04-21T23:57:46.858Z,38.24
